createdAt,value
2019-05-30T00:01:47.690Z,93
2019-05-30T00:06:47.696Z,93
2019-05-30T00:11:47.724Z,93.5
2019-05-30T00:16:47.725Z,92.6
2019-05-30T00:21:47.684Z,92.9
2019-05-30T00:26:47.700Z,92.6
2019-05-30T00:31:47.746Z,92.4
2019-05-30T00:36:47.861Z,93.2
2019-05-30T00:41:47.762Z,92.8
2019-05-30T00:46:47.757Z,93
2019-05-30T00:51:47.730Z,93.3
2019-05-30T00:56:47.740Z,93.4
2019-05-30T01:01:47.710Z,92.6
2019-05-30T01:06:47.724Z,93.4
2019-05-30T01:11:47.739Z,92.7
2019-05-30T01:16:47.729Z,93.4
2019-05-30T01:21:47.748Z,92.3
2019-05-30T01:26:47.735Z,93.1
2019-05-30T01:31:47.723Z,92.4
2019-05-30T01:36:47.727Z,92.6
2019-05-30T01:41:47.729Z,93.1
2019-05-30T01:46:47.729Z,92.6
2019-05-30T01:51:47.731Z,92.6
2019-05-30T01:56:47.736Z,92.4
2019-05-30T02:01:47.735Z,93.3
2019-05-30T02:06:47.755Z,93
2019-05-30T02:11:47.752Z,92.9
2019-05-30T02:16:47.767Z,93.7
2019-05-30T02:21:47.746Z,93.1
2019-05-30T02:26:47.747Z,93.5
2019-05-30T02:31:47.772Z,92.6
2019-05-30T02:36:47.774Z,92.8
2019-05-30T02:41:47.775Z,92.7
2019-05-30T02:46:47.880Z,93.1
2019-05-30T02:51:47.781Z,93.1
2019-05-30T02:56:47.768Z,93.3
2019-05-30T03:02:04.945Z,93.3
2019-05-30T03:06:47.780Z,92.7
2019-05-30T03:11:47.734Z,93
2019-05-30T03:16:47.800Z,93.5
2019-05-30T03:21:47.785Z,92.7
2019-05-30T03:26:47.817Z,93
2019-05-30T03:31:47.825Z,93
2019-05-30T03:36:48.035Z,93.1
2019-05-30T03:41:47.961Z,92.6
2019-05-30T03:46:47.765Z,93.3
2019-05-30T03:51:47.965Z,92.6
2019-05-30T03:56:47.763Z,93.5
2019-05-30T04:01:47.769Z,93
2019-05-30T04:06:47.815Z,93.6
2019-05-30T04:11:47.825Z,93.4
2019-05-30T04:16:47.811Z,92.8
2019-05-30T04:21:47.819Z,92.5
2019-05-30T04:26:47.819Z,93.4
2019-05-30T04:31:47.822Z,93.5
2019-05-30T04:36:53.892Z,92.9
2019-05-30T04:41:47.837Z,93
2019-05-30T04:46:47.840Z,92.8
2019-05-30T04:51:47.854Z,92.8
2019-05-30T04:56:47.835Z,92.9
2019-05-30T05:01:47.859Z,92.9
2019-05-30T05:06:47.835Z,92.1
2019-05-30T05:11:47.835Z,92
2019-05-30T05:16:47.868Z,92.1
2019-05-30T05:21:47.800Z,91.6
2019-05-30T05:26:47.857Z,91.1
2019-05-30T05:31:47.866Z,90.4
2019-05-30T05:36:47.853Z,91.8
2019-05-30T05:41:47.882Z,90.7
2019-05-30T05:46:47.876Z,90.3
2019-05-30T05:51:47.877Z,88.7
2019-05-30T05:56:47.866Z,89.1
2019-05-30T06:01:47.900Z,89.5
2019-05-30T06:06:47.872Z,88.4
2019-05-30T06:11:49.406Z,88.2
2019-05-30T06:16:47.868Z,87.7
2019-05-30T06:21:54.764Z,87.5
2019-05-30T06:26:47.910Z,85.1
2019-05-30T06:31:47.889Z,86
2019-05-30T06:36:47.925Z,84.8
2019-05-30T06:41:47.892Z,85.6
2019-05-30T06:46:47.894Z,84.3
2019-05-30T06:51:47.889Z,84
2019-05-30T06:56:47.882Z,84
2019-05-30T07:01:47.892Z,83.8
2019-05-30T07:06:48.527Z,82.6
2019-05-30T07:11:47.915Z,81.6
2019-05-30T07:16:47.955Z,82
2019-05-30T07:21:47.881Z,81.6
2019-05-30T07:26:47.908Z,81.5
2019-05-30T07:31:47.950Z,82.2
2019-05-30T07:36:47.964Z,80.1
2019-05-30T07:42:06.713Z,81.2
2019-05-30T07:46:47.920Z,80.1
2019-05-30T07:51:47.973Z,79
2019-05-30T07:56:47.942Z,78.4
2019-05-30T08:01:47.933Z,78.9
2019-05-30T08:06:47.935Z,78.2
2019-05-30T08:11:47.932Z,77.1
2019-05-30T08:16:47.953Z,76.6
2019-05-30T08:21:47.931Z,75.7
2019-05-30T08:26:47.941Z,74.2
2019-05-30T08:31:47.935Z,73.9
2019-05-30T08:36:47.983Z,72
2019-05-30T08:41:47.958Z,74.6
2019-05-30T08:46:47.903Z,70.6
2019-05-30T08:51:47.964Z,71.1
2019-05-30T08:56:47.958Z,69.7
2019-05-30T09:01:53.410Z,67.4
2019-05-30T09:06:47.980Z,66.8
2019-05-30T09:11:47.965Z,67.7
2019-05-30T09:16:51.044Z,65.5
2019-05-30T09:21:47.970Z,65.1
2019-05-30T09:26:50.636Z,65
2019-05-30T09:31:48.913Z,63.7
2019-05-30T09:36:49.396Z,63.7
2019-05-30T09:41:50.017Z,64.5
2019-05-30T09:46:48.814Z,62.5
2019-05-30T09:51:49.145Z,58.7
2019-05-30T09:56:48.785Z,60.6
2019-05-30T10:01:48.301Z,63
2019-05-30T10:06:48.621Z,63.7
2019-05-30T10:11:49.249Z,63.7
2019-05-30T10:16:56.752Z,64.2
2019-05-30T10:21:49.146Z,64.7
2019-05-30T10:26:49.110Z,63.7
2019-05-30T10:31:48.526Z,64.6
2019-05-30T10:36:50.600Z,63.8
2019-05-30T10:41:49.288Z,63.6
2019-05-30T10:46:50.772Z,65
2019-05-30T10:51:49.451Z,63.9
2019-05-30T10:56:49.995Z,63.2
2019-05-30T11:01:50.205Z,63.6
2019-05-30T11:07:11.244Z,65
2019-05-30T11:11:48.931Z,62.9
2019-05-30T11:16:51.393Z,59.1
2019-05-30T11:21:48.051Z,58.7
2019-05-30T11:26:52.041Z,58.2
2019-05-30T11:31:49.015Z,58.7
2019-05-30T11:36:49.183Z,59.5
2019-05-30T11:41:49.348Z,61
2019-05-30T11:46:49.139Z,59.7
2019-05-30T11:51:48.028Z,60.5
2019-05-30T11:56:48.074Z,60.9
2019-05-30T12:01:48.055Z,60.8
2019-05-30T12:06:48.100Z,57.1
2019-05-30T12:11:48.066Z,60.2
2019-05-30T12:16:48.054Z,59.1
2019-05-30T12:21:48.088Z,60.2
2019-05-30T12:26:48.071Z,62.1
2019-05-30T12:31:48.210Z,62.4
2019-05-30T12:36:48.049Z,61.7
2019-05-30T12:41:48.106Z,61.7
2019-05-30T12:46:48.093Z,61.4
2019-05-30T12:51:48.084Z,60.8
2019-05-30T12:56:48.116Z,61.1
2019-05-30T13:01:49.075Z,58.6
2019-05-30T13:06:49.110Z,59
2019-05-30T13:11:49.190Z,59.2
2019-05-30T13:16:49.075Z,57.8
2019-05-30T13:21:49.102Z,58.2
2019-05-30T13:26:49.642Z,56
2019-05-30T13:31:49.118Z,54.8
2019-05-30T13:36:49.093Z,54
2019-05-30T13:41:49.092Z,54.6
2019-05-30T13:46:49.092Z,52.9
2019-05-30T13:51:49.100Z,52.1
2019-05-30T13:56:49.143Z,53.6
2019-05-30T14:01:49.115Z,53.2
2019-05-30T14:06:49.140Z,53.3
2019-05-30T14:11:49.111Z,55.3
2019-05-30T14:16:50.625Z,54.8
2019-05-30T14:21:49.229Z,55.9
2019-05-30T14:26:49.122Z,56.3
2019-05-30T14:31:49.125Z,56.8
2019-05-30T14:36:49.146Z,54.7
2019-05-30T14:41:49.134Z,56.1
2019-05-30T14:46:49.146Z,55.2
2019-05-30T14:51:49.127Z,53
2019-05-30T14:56:49.171Z,52.8
2019-05-30T15:01:49.137Z,53.5
2019-05-30T15:06:49.131Z,54.4
2019-05-30T15:11:49.132Z,52.7
2019-05-30T15:16:49.162Z,53.1
2019-05-30T15:21:49.142Z,53
2019-05-30T15:26:49.130Z,51.3
2019-05-30T15:31:49.154Z,51.9
2019-05-30T15:36:49.177Z,51.6
2019-05-30T15:41:49.155Z,52.3
2019-05-30T15:46:49.158Z,52.1
2019-05-30T15:51:49.341Z,52.7
2019-05-30T15:56:49.218Z,52.3
2019-05-30T16:01:49.193Z,52.1
2019-05-30T16:06:49.192Z,52.3
2019-05-30T16:11:49.216Z,53.2
2019-05-30T16:16:49.182Z,53.1
2019-05-30T16:21:49.456Z,55.5
2019-05-30T16:26:49.298Z,54.3
2019-05-30T16:31:49.233Z,55.2
2019-05-30T16:36:49.190Z,54.7
2019-05-30T16:41:49.316Z,54.6
2019-05-30T16:46:49.194Z,55.5
2019-05-30T16:51:49.204Z,56
2019-05-30T16:56:49.207Z,55.7
2019-05-30T17:01:58.714Z,56.1
2019-05-30T17:06:49.201Z,56.7
2019-05-30T17:11:50.278Z,56.4
2019-05-30T17:16:49.186Z,57.2
2019-05-30T17:21:49.233Z,56.7
2019-05-30T17:26:52.266Z,56.3
2019-05-30T17:31:49.224Z,55.4
2019-05-30T17:36:49.480Z,56.8
2019-05-30T17:41:49.257Z,54
2019-05-30T17:46:49.246Z,48.2
2019-05-30T17:51:50.486Z,45.9
2019-05-30T17:56:52.250Z,46.3
2019-05-30T18:01:49.250Z,47.1
2019-05-30T18:06:50.369Z,46.5
2019-05-30T18:11:52.783Z,51
2019-05-30T18:16:52.023Z,52.6
2019-05-30T18:21:53.392Z,54.3
2019-05-30T18:26:55.086Z,55.9
2019-05-30T18:31:49.761Z,56.2
2019-05-30T18:36:49.346Z,57.3
2019-05-30T18:41:50.391Z,58.7
2019-05-30T18:46:58.215Z,59.9
2019-05-30T18:51:49.325Z,60.2
2019-05-30T18:56:49.351Z,60.9
2019-05-30T19:01:59.811Z,61.3
2019-05-30T19:06:51.844Z,62.2
2019-05-30T19:11:55.036Z,61.9
2019-05-30T19:16:53.797Z,63.2
2019-05-30T19:21:53.477Z,63
2019-05-30T19:26:50.710Z,63.7
2019-05-30T19:31:50.795Z,64.7
2019-05-30T19:36:50.778Z,64.9
2019-05-30T19:41:57.745Z,65.6
2019-05-30T19:46:53.257Z,66.1
2019-05-30T19:51:50.780Z,68
2019-05-30T19:56:51.946Z,68.3
2019-05-30T20:01:50.750Z,68.3
2019-05-30T20:06:53.148Z,68.8
2019-05-30T20:12:07.833Z,69.6
2019-05-30T20:16:52.610Z,69.8
2019-05-30T20:21:51.945Z,69.4
2019-05-30T20:26:51.388Z,71
2019-05-30T20:31:51.189Z,70.5
2019-05-30T20:36:50.912Z,71.3
2019-05-30T20:41:54.255Z,71.8
2019-05-30T20:46:51.975Z,72.7
2019-05-30T20:51:51.747Z,73.3
2019-05-30T20:56:52.062Z,73.2
2019-05-30T21:01:50.758Z,74.5
2019-05-30T21:06:50.709Z,74.8
2019-05-30T21:11:50.966Z,75.4
2019-05-30T21:16:50.724Z,75.6
2019-05-30T21:21:50.709Z,75.7
2019-05-30T21:26:50.710Z,76.3
2019-05-30T21:31:50.817Z,76.4
2019-05-30T21:36:50.732Z,76.7
2019-05-30T21:41:50.715Z,76.1
2019-05-30T21:46:50.720Z,76.8
2019-05-30T21:51:50.728Z,78.2
2019-05-30T21:56:51.168Z,77.8
2019-05-30T22:01:57.796Z,78.7
2019-05-30T22:06:51.239Z,78
2019-05-30T22:11:52.057Z,79.2
2019-05-30T22:16:52.319Z,78.7
2019-05-30T22:21:50.760Z,79.5
2019-05-30T22:26:51.030Z,80.2
2019-05-30T22:31:51.232Z,79.5
2019-05-30T22:36:51.199Z,81
2019-05-30T22:41:50.741Z,79.9
2019-05-30T22:46:50.751Z,80.4
2019-05-30T22:51:51.404Z,80.5
2019-05-30T22:56:51.747Z,81.4
2019-05-30T23:01:53.641Z,81.6
2019-05-30T23:06:50.757Z,82.2
2019-05-30T23:11:51.846Z,82.4
2019-05-30T23:16:50.871Z,83
2019-05-30T23:21:53.227Z,82.8
2019-05-30T23:26:51.908Z,83.4
2019-05-30T23:31:52.197Z,83.9
2019-05-30T23:36:50.771Z,84.6
2019-05-30T23:41:51.253Z,84
2019-05-30T23:46:51.634Z,84.2
2019-05-30T23:51:52.117Z,84
2019-05-30T23:56:50.776Z,83.8
